sensor_id;sensor_type;location;lat;lon;timestamp;temperature;humidity
35325;DHT22;35135;47.510;19.036;2022-12-29T00:02:15;20.30;53.10
35325;DHT22;35135;47.510;19.036;2022-12-29T00:04:41;20.30;53.10
35325;DHT22;35135;47.510;19.036;2022-12-29T00:07:07;20.30;53.10
35325;DHT22;35135;47.510;19.036;2022-12-29T00:09:34;20.30;53.10
35325;DHT22;35135;47.510;19.036;2022-12-29T00:12:00;20.30;53.10
35325;DHT22;35135;47.510;19.036;2022-12-29T00:14:27;20.30;53.00
35325;DHT22;35135;47.510;19.036;2022-12-29T00:17:11;20.30;53.10
35325;DHT22;35135;47.510;19.036;2022-12-29T00:19:37;20.30;53.10
35325;DHT22;35135;47.510;19.036;2022-12-29T00:22:21;20.30;53.00
35325;DHT22;35135;47.510;19.036;2022-12-29T00:25:09;20.30;53.00
35325;DHT22;35135;47.510;19.036;2022-12-29T00:27:53;20.30;53.10
35325;DHT22;35135;47.510;19.036;2022-12-29T00:30:37;20.30;53.00
35325;DHT22;35135;47.510;19.036;2022-12-29T00:33:24;20.20;53.00
35325;DHT22;35135;47.510;19.036;2022-12-29T00:36:16;20.30;53.00
35325;DHT22;35135;47.510;19.036;2022-12-29T00:38:48;20.20;53.00
35325;DHT22;35135;47.510;19.036;2022-12-29T00:41:34;20.20;53.00
35325;DHT22;35135;47.510;19.036;2022-12-29T00:44:38;20.20;53.00
35325;DHT22;35135;47.510;19.036;2022-12-29T00:47:04;20.20;53.00
35325;DHT22;35135;47.510;19.036;2022-12-29T00:49:30;20.20;53.00
35325;DHT22;35135;47.510;19.036;2022-12-29T00:52:05;20.20;53.00
35325;DHT22;35135;47.510;19.036;2022-12-29T00:54:33;20.20;53.00
35325;DHT22;35135;47.510;19.036;2022-12-29T00:56:59;20.20;53.00
35325;DHT22;35135;47.510;19.036;2022-12-29T00:59:26;20.20;53.00
35325;DHT22;35135;47.510;19.036;2022-12-29T01:01:53;20.10;52.90
35325;DHT22;35135;47.510;19.036;2022-12-29T01:04:23;20.10;52.90
35325;DHT22;35135;47.510;19.036;2022-12-29T01:06:49;20.10;52.90
35325;DHT22;35135;47.510;19.036;2022-12-29T01:09:16;20.10;52.90
35325;DHT22;35135;47.510;19.036;2022-12-29T01:12:00;20.10;52.90
35325;DHT22;35135;47.510;19.036;2022-12-29T01:14:26;20.10;52.90
35325;DHT22;35135;47.510;19.036;2022-12-29T01:16:52;20.10;52.90
35325;DHT22;35135;47.510;19.036;2022-12-29T01:19:19;20.10;52.90
35325;DHT22;35135;47.510;19.036;2022-12-29T01:21:46;20.10;52.90
35325;DHT22;35135;47.510;19.036;2022-12-29T01:24:12;20.10;52.90
35325;DHT22;35135;47.510;19.036;2022-12-29T01:26:38;20.10;52.90
35325;DHT22;35135;47.510;19.036;2022-12-29T01:29:04;20.10;52.80
35325;DHT22;35135;47.510;19.036;2022-12-29T01:31:29;20.10;52.90
35325;DHT22;35135;47.510;19.036;2022-12-29T01:33:55;20.10;52.90
35325;DHT22;35135;47.510;19.036;2022-12-29T01:36:21;20.10;52.90
35325;DHT22;35135;47.510;19.036;2022-12-29T01:38:46;20.10;52.90
35325;DHT22;35135;47.510;19.036;2022-12-29T01:41:14;20.00;52.80
35325;DHT22;35135;47.510;19.036;2022-12-29T01:43:49;20.00;52.90
35325;DHT22;35135;47.510;19.036;2022-12-29T01:46:28;20.00;52.80
35325;DHT22;35135;47.510;19.036;2022-12-29T01:51:42;20.00;52.80
35325;DHT22;35135;47.510;19.036;2022-12-29T01:54:12;20.00;52.80
35325;DHT22;35135;47.510;19.036;2022-12-29T01:56:40;20.00;52.70
35325;DHT22;35135;47.510;19.036;2022-12-29T01:59:10;20.00;52.80
35325;DHT22;35135;47.510;19.036;2022-12-29T02:01:37;20.00;52.80
35325;DHT22;35135;47.510;19.036;2022-12-29T02:04:03;20.00;52.80
35325;DHT22;35135;47.510;19.036;2022-12-29T02:06:33;20.00;52.80
35325;DHT22;35135;47.510;19.036;2022-12-29T02:09:01;20.00;52.80
35325;DHT22;35135;47.510;19.036;2022-12-29T02:11:28;20.00;52.80
35325;DHT22;35135;47.510;19.036;2022-12-29T02:13:55;19.90;52.70
35325;DHT22;35135;47.510;19.036;2022-12-29T02:16:43;19.90;52.70
35325;DHT22;35135;47.510;19.036;2022-12-29T02:24:49;19.90;52.70
35325;DHT22;35135;47.510;19.036;2022-12-29T02:41:24;19.90;52.70
35325;DHT22;35135;47.510;19.036;2022-12-29T02:46:28;19.90;52.70
35325;DHT22;35135;47.510;19.036;2022-12-29T02:54:16;19.90;52.70
35325;DHT22;35135;47.510;19.036;2022-12-29T02:57:00;19.80;52.70
35325;DHT22;35135;47.510;19.036;2022-12-29T02:59:26;19.80;53.30
35325;DHT22;35135;47.510;19.036;2022-12-29T03:10:44;19.80;52.60
35325;DHT22;35135;47.510;19.036;2022-12-29T03:13:59;19.80;52.60
35325;DHT22;35135;47.510;19.036;2022-12-29T03:16:44;19.80;52.60
35325;DHT22;35135;47.510;19.036;2022-12-29T03:19:16;19.80;52.60
35325;DHT22;35135;47.510;19.036;2022-12-29T03:21:55;19.80;52.60
35325;DHT22;35135;47.510;19.036;2022-12-29T03:24:43;19.80;52.60
35325;DHT22;35135;47.510;19.036;2022-12-29T03:27:14;19.80;52.60
35325;DHT22;35135;47.510;19.036;2022-12-29T03:29:46;19.80;52.60
35325;DHT22;35135;47.510;19.036;2022-12-29T03:32:20;19.80;52.60
35325;DHT22;35135;47.510;19.036;2022-12-29T03:34:48;19.80;52.60
35325;DHT22;35135;47.510;19.036;2022-12-29T03:37:18;19.80;52.60
35325;DHT22;35135;47.510;19.036;2022-12-29T03:39:45;19.70;52.60
35325;DHT22;35135;47.510;19.036;2022-12-29T03:42:18;19.70;52.50
35325;DHT22;35135;47.510;19.036;2022-12-29T03:44:45;19.70;52.50
35325;DHT22;35135;47.510;19.036;2022-12-29T03:47:12;19.70;52.50
35325;DHT22;35135;47.510;19.036;2022-12-29T03:49:38;19.70;52.50
35325;DHT22;35135;47.510;19.036;2022-12-29T03:52:04;19.70;52.50
35325;DHT22;35135;47.510;19.036;2022-12-29T03:54:31;19.80;52.60
35325;DHT22;35135;47.510;19.036;2022-12-29T03:56:57;19.80;52.50
35325;DHT22;35135;47.510;19.036;2022-12-29T03:59:23;19.80;52.50
35325;DHT22;35135;47.510;19.036;2022-12-29T04:01:49;19.70;52.40
35325;DHT22;35135;47.510;19.036;2022-12-29T04:04:15;19.70;52.40
35325;DHT22;35135;47.510;19.036;2022-12-29T04:06:40;19.70;52.40
35325;DHT22;35135;47.510;19.036;2022-12-29T04:09:06;19.70;52.40
35325;DHT22;35135;47.510;19.036;2022-12-29T04:11:32;19.70;52.40
35325;DHT22;35135;47.510;19.036;2022-12-29T04:13:58;19.70;52.40
35325;DHT22;35135;47.510;19.036;2022-12-29T04:16:23;19.70;52.40
35325;DHT22;35135;47.510;19.036;2022-12-29T04:18:49;19.70;52.50
35325;DHT22;35135;47.510;19.036;2022-12-29T04:21:15;19.70;52.40
35325;DHT22;35135;47.510;19.036;2022-12-29T04:23:40;19.70;52.40
35325;DHT22;35135;47.510;19.036;2022-12-29T04:26:07;19.70;52.40
35325;DHT22;35135;47.510;19.036;2022-12-29T04:28:34;19.70;52.40
35325;DHT22;35135;47.510;19.036;2022-12-29T04:31:00;19.70;52.40
35325;DHT22;35135;47.510;19.036;2022-12-29T04:33:26;19.70;52.40
35325;DHT22;35135;47.510;19.036;2022-12-29T04:35:52;19.70;52.40
35325;DHT22;35135;47.510;19.036;2022-12-29T04:38:22;19.70;52.40
35325;DHT22;35135;47.510;19.036;2022-12-29T04:40:49;19.70;52.40
35325;DHT22;35135;47.510;19.036;2022-12-29T04:43:15;19.70;52.40
35325;DHT22;35135;47.510;19.036;2022-12-29T04:45:45;19.70;52.40
35325;DHT22;35135;47.510;19.036;2022-12-29T04:48:10;19.70;52.40
35325;DHT22;35135;47.510;19.036;2022-12-29T04:50:37;19.70;52.40
35325;DHT22;35135;47.510;19.036;2022-12-29T04:53:02;19.60;52.30
35325;DHT22;35135;47.510;19.036;2022-12-29T04:55:28;19.60;52.30
35325;DHT22;35135;47.510;19.036;2022-12-29T04:57:53;19.70;52.30
35325;DHT22;35135;47.510;19.036;2022-12-29T05:00:19;19.70;52.30
35325;DHT22;35135;47.510;19.036;2022-12-29T05:02:45;19.60;52.20
35325;DHT22;35135;47.510;19.036;2022-12-29T05:05:11;19.60;52.30
35325;DHT22;35135;47.510;19.036;2022-12-29T05:07:37;19.70;52.30
35325;DHT22;35135;47.510;19.036;2022-12-29T05:10:03;19.60;52.30
35325;DHT22;35135;47.510;19.036;2022-12-29T05:12:34;19.60;52.30
35325;DHT22;35135;47.510;19.036;2022-12-29T05:15:00;19.60;52.20
35325;DHT22;35135;47.510;19.036;2022-12-29T05:17:28;19.70;52.30
35325;DHT22;35135;47.510;19.036;2022-12-29T05:19:54;19.70;52.20
35325;DHT22;35135;47.510;19.036;2022-12-29T05:22:19;19.80;52.10
35325;DHT22;35135;47.510;19.036;2022-12-29T05:24:45;19.90;52.00
35325;DHT22;35135;47.510;19.036;2022-12-29T05:27:11;20.00;51.90
35325;DHT22;35135;47.510;19.036;2022-12-29T05:29:37;20.10;51.70
35325;DHT22;35135;47.510;19.036;2022-12-29T05:32:02;20.20;51.60
35325;DHT22;35135;47.510;19.036;2022-12-29T05:34:28;20.30;51.40
35325;DHT22;35135;47.510;19.036;2022-12-29T05:36:54;20.40;51.20
35325;DHT22;35135;47.510;19.036;2022-12-29T05:39:19;20.50;51.00
35325;DHT22;35135;47.510;19.036;2022-12-29T05:41:45;20.60;50.90
35325;DHT22;35135;47.510;19.036;2022-12-29T05:44:11;20.60;50.70
35325;DHT22;35135;47.510;19.036;2022-12-29T05:46:37;20.70;50.60
35325;DHT22;35135;47.510;19.036;2022-12-29T05:49:03;20.80;50.40
35325;DHT22;35135;47.510;19.036;2022-12-29T05:51:28;20.90;50.40
35325;DHT22;35135;47.510;19.036;2022-12-29T05:53:54;20.90;50.20
35325;DHT22;35135;47.510;19.036;2022-12-29T05:56:20;20.90;50.00
35325;DHT22;35135;47.510;19.036;2022-12-29T05:58:45;20.90;49.90
35325;DHT22;35135;47.510;19.036;2022-12-29T06:01:11;20.90;49.90
35325;DHT22;35135;47.510;19.036;2022-12-29T06:03:37;20.90;49.90
35325;DHT22;35135;47.510;19.036;2022-12-29T06:06:02;20.90;49.80
35325;DHT22;35135;47.510;19.036;2022-12-29T06:08:28;20.90;49.80
35325;DHT22;35135;47.510;19.036;2022-12-29T06:10:54;20.90;49.70
35325;DHT22;35135;47.510;19.036;2022-12-29T06:13:20;20.90;49.80
35325;DHT22;35135;47.510;19.036;2022-12-29T06:15:48;20.90;49.90
35325;DHT22;35135;47.510;19.036;2022-12-29T06:18:15;20.80;49.80
35325;DHT22;35135;47.510;19.036;2022-12-29T06:20:40;20.80;49.90
35325;DHT22;35135;47.510;19.036;2022-12-29T06:23:06;20.80;49.90
35325;DHT22;35135;47.510;19.036;2022-12-29T06:25:32;20.70;49.90
35325;DHT22;35135;47.510;19.036;2022-12-29T06:27:59;20.70;50.00
35325;DHT22;35135;47.510;19.036;2022-12-29T06:30:25;20.70;49.90
35325;DHT22;35135;47.510;19.036;2022-12-29T06:32:51;20.70;49.90
35325;DHT22;35135;47.510;19.036;2022-12-29T06:35:17;20.60;50.00
35325;DHT22;35135;47.510;19.036;2022-12-29T06:37:43;20.60;50.10
35325;DHT22;35135;47.510;19.036;2022-12-29T06:40:09;20.60;50.10
35325;DHT22;35135;47.510;19.036;2022-12-29T06:42:35;20.50;50.20
35325;DHT22;35135;47.510;19.036;2022-12-29T06:45:01;20.50;50.20
35325;DHT22;35135;47.510;19.036;2022-12-29T06:47:27;20.50;50.70
35325;DHT22;35135;47.510;19.036;2022-12-29T06:49:53;20.50;50.20
35325;DHT22;35135;47.510;19.036;2022-12-29T06:52:18;20.40;50.10
35325;DHT22;35135;47.510;19.036;2022-12-29T06:54:44;20.40;50.20
35325;DHT22;35135;47.510;19.036;2022-12-29T06:57:10;20.40;50.20
35325;DHT22;35135;47.510;19.036;2022-12-29T06:59:35;20.40;50.20
35325;DHT22;35135;47.510;19.036;2022-12-29T07:02:01;20.30;50.20
35325;DHT22;35135;47.510;19.036;2022-12-29T07:04:30;20.30;50.10
35325;DHT22;35135;47.510;19.036;2022-12-29T07:06:56;20.30;50.30
35325;DHT22;35135;47.510;19.036;2022-12-29T07:09:22;20.30;50.20
35325;DHT22;35135;47.510;19.036;2022-12-29T07:11:47;20.30;50.30
35325;DHT22;35135;47.510;19.036;2022-12-29T07:14:13;20.20;50.30
35325;DHT22;35135;47.510;19.036;2022-12-29T07:16:39;20.20;50.30
35325;DHT22;35135;47.510;19.036;2022-12-29T07:19:04;20.20;50.30
35325;DHT22;35135;47.510;19.036;2022-12-29T07:21:30;20.20;50.30
35325;DHT22;35135;47.510;19.036;2022-12-29T07:23:56;20.20;50.40
35325;DHT22;35135;47.510;19.036;2022-12-29T07:26:22;20.20;50.40
35325;DHT22;35135;47.510;19.036;2022-12-29T07:28:47;20.20;50.40
35325;DHT22;35135;47.510;19.036;2022-12-29T07:31:21;20.20;50.50
35325;DHT22;35135;47.510;19.036;2022-12-29T07:33:47;20.10;50.40
35325;DHT22;35135;47.510;19.036;2022-12-29T07:36:14;20.10;50.50
35325;DHT22;35135;47.510;19.036;2022-12-29T07:38:40;20.10;50.60
35325;DHT22;35135;47.510;19.036;2022-12-29T07:41:06;20.10;50.60
35325;DHT22;35135;47.510;19.036;2022-12-29T07:43:32;20.10;50.60
35325;DHT22;35135;47.510;19.036;2022-12-29T07:45:58;20.10;50.50
35325;DHT22;35135;47.510;19.036;2022-12-29T07:48:23;20.10;50.60
35325;DHT22;35135;47.510;19.036;2022-12-29T07:50:49;20.10;50.70
35325;DHT22;35135;47.510;19.036;2022-12-29T07:53:15;20.10;50.70
35325;DHT22;35135;47.510;19.036;2022-12-29T07:55:41;20.10;50.60
35325;DHT22;35135;47.510;19.036;2022-12-29T07:58:07;20.10;50.60
35325;DHT22;35135;47.510;19.036;2022-12-29T08:00:33;20.10;50.70
35325;DHT22;35135;47.510;19.036;2022-12-29T08:02:59;20.10;50.70
35325;DHT22;35135;47.510;19.036;2022-12-29T08:05:25;20.10;50.70
35325;DHT22;35135;47.510;19.036;2022-12-29T08:07:50;20.10;50.60
35325;DHT22;35135;47.510;19.036;2022-12-29T08:10:16;20.10;50.70
35325;DHT22;35135;47.510;19.036;2022-12-29T08:12:43;20.10;50.60
35325;DHT22;35135;47.510;19.036;2022-12-29T08:15:11;20.10;50.60
35325;DHT22;35135;47.510;19.036;2022-12-29T08:17:37;20.10;50.60
35325;DHT22;35135;47.510;19.036;2022-12-29T08:20:04;20.10;50.60
35325;DHT22;35135;47.510;19.036;2022-12-29T08:22:30;20.10;50.60
35325;DHT22;35135;47.510;19.036;2022-12-29T08:24:56;20.10;50.60
35325;DHT22;35135;47.510;19.036;2022-12-29T08:27:21;20.10;50.60
35325;DHT22;35135;47.510;19.036;2022-12-29T08:29:47;20.10;50.60
35325;DHT22;35135;47.510;19.036;2022-12-29T08:32:13;20.10;50.70
35325;DHT22;35135;47.510;19.036;2022-12-29T08:34:39;20.00;50.60
35325;DHT22;35135;47.510;19.036;2022-12-29T08:37:05;20.10;50.60
35325;DHT22;35135;47.510;19.036;2022-12-29T08:39:30;20.00;50.60
35325;DHT22;35135;47.510;19.036;2022-12-29T08:41:56;20.00;50.70
35325;DHT22;35135;47.510;19.036;2022-12-29T08:44:22;20.00;50.70
35325;DHT22;35135;47.510;19.036;2022-12-29T08:46:47;20.00;50.80
35325;DHT22;35135;47.510;19.036;2022-12-29T08:49:13;20.00;50.70
35325;DHT22;35135;47.510;19.036;2022-12-29T08:51:39;20.00;50.70
35325;DHT22;35135;47.510;19.036;2022-12-29T08:54:05;20.00;50.70
35325;DHT22;35135;47.510;19.036;2022-12-29T08:56:31;20.00;50.80
35325;DHT22;35135;47.510;19.036;2022-12-29T08:58:57;20.00;50.80
35325;DHT22;35135;47.510;19.036;2022-12-29T09:01:23;20.00;51.10
35325;DHT22;35135;47.510;19.036;2022-12-29T09:03:48;20.00;51.20
35325;DHT22;35135;47.510;19.036;2022-12-29T09:06:15;20.00;51.20
35325;DHT22;35135;47.510;19.036;2022-12-29T09:08:42;20.00;51.20
35325;DHT22;35135;47.510;19.036;2022-12-29T09:11:11;20.00;51.10
35325;DHT22;35135;47.510;19.036;2022-12-29T09:13:37;20.00;51.10
35325;DHT22;35135;47.510;19.036;2022-12-29T09:16:04;20.00;51.10
35325;DHT22;35135;47.510;19.036;2022-12-29T09:18:30;19.90;51.10
35325;DHT22;35135;47.510;19.036;2022-12-29T09:20:57;19.90;51.10
35325;DHT22;35135;47.510;19.036;2022-12-29T09:23:24;19.90;51.20
35325;DHT22;35135;47.510;19.036;2022-12-29T09:25:49;19.90;51.20
35325;DHT22;35135;47.510;19.036;2022-12-29T09:28:16;19.90;51.20
35325;DHT22;35135;47.510;19.036;2022-12-29T09:30:42;19.90;51.20
35325;DHT22;35135;47.510;19.036;2022-12-29T09:33:07;19.90;51.20
35325;DHT22;35135;47.510;19.036;2022-12-29T09:35:33;19.90;51.20
35325;DHT22;35135;47.510;19.036;2022-12-29T09:37:59;19.90;51.20
35325;DHT22;35135;47.510;19.036;2022-12-29T09:40:28;19.90;51.20
35325;DHT22;35135;47.510;19.036;2022-12-29T09:45:53;19.90;51.20
35325;DHT22;35135;47.510;19.036;2022-12-29T09:48:25;19.90;51.30
35325;DHT22;35135;47.510;19.036;2022-12-29T09:50:56;19.90;51.30
35325;DHT22;35135;47.510;19.036;2022-12-29T09:53:35;19.90;51.40
35325;DHT22;35135;47.510;19.036;2022-12-29T09:56:03;19.90;51.50
35325;DHT22;35135;47.510;19.036;2022-12-29T10:01:58;19.90;51.50
35325;DHT22;35135;47.510;19.036;2022-12-29T10:04:28;19.90;51.40
35325;DHT22;35135;47.510;19.036;2022-12-29T10:09:37;19.90;51.70
35325;DHT22;35135;47.510;19.036;2022-12-29T10:15:14;19.90;51.90
35325;DHT22;35135;47.510;19.036;2022-12-29T10:20:53;20.00;52.20
35325;DHT22;35135;47.510;19.036;2022-12-29T10:23:53;20.00;52.30
35325;DHT22;35135;47.510;19.036;2022-12-29T10:26:22;20.00;52.90
35325;DHT22;35135;47.510;19.036;2022-12-29T10:28:53;20.10;53.20
35325;DHT22;35135;47.510;19.036;2022-12-29T10:31:22;20.10;52.90
35325;DHT22;35135;47.510;19.036;2022-12-29T10:33:57;20.10;52.80
35325;DHT22;35135;47.510;19.036;2022-12-29T10:36:43;20.10;53.20
35325;DHT22;35135;47.510;19.036;2022-12-29T10:42:18;20.10;53.50
35325;DHT22;35135;47.510;19.036;2022-12-29T10:44:44;20.20;53.90
35325;DHT22;35135;47.510;19.036;2022-12-29T10:47:14;20.20;53.70
35325;DHT22;35135;47.510;19.036;2022-12-29T10:49:42;20.20;53.60
35325;DHT22;35135;47.510;19.036;2022-12-29T10:52:11;20.20;54.20
35325;DHT22;35135;47.510;19.036;2022-12-29T10:54:46;20.30;54.40
35325;DHT22;35135;47.510;19.036;2022-12-29T10:59:42;20.20;54.30
35325;DHT22;35135;47.510;19.036;2022-12-29T11:07:18;20.30;53.80
35325;DHT22;35135;47.510;19.036;2022-12-29T11:09:45;20.30;54.30
35325;DHT22;35135;47.510;19.036;2022-12-29T11:12:26;20.30;53.90
35325;DHT22;35135;47.510;19.036;2022-12-29T11:17:27;20.30;54.00
35325;DHT22;35135;47.510;19.036;2022-12-29T11:19:52;20.30;54.60
35325;DHT22;35135;47.510;19.036;2022-12-29T11:24:50;20.30;54.20
35325;DHT22;35135;47.510;19.036;2022-12-29T11:27:21;20.30;54.50
35325;DHT22;35135;47.510;19.036;2022-12-29T11:29:49;20.30;54.30
35325;DHT22;35135;47.510;19.036;2022-12-29T11:32:19;20.30;54.40
35325;DHT22;35135;47.510;19.036;2022-12-29T11:34:45;20.30;54.50
35325;DHT22;35135;47.510;19.036;2022-12-29T11:37:19;20.30;54.50
35325;DHT22;35135;47.510;19.036;2022-12-29T11:45:25;20.40;54.30
35325;DHT22;35135;47.510;19.036;2022-12-29T11:48:16;20.40;54.10
35325;DHT22;35135;47.510;19.036;2022-12-29T11:50:43;20.40;54.10
35325;DHT22;35135;47.510;19.036;2022-12-29T11:53:37;20.40;54.50
35325;DHT22;35135;47.510;19.036;2022-12-29T11:56:08;20.40;54.20
35325;DHT22;35135;47.510;19.036;2022-12-29T11:58:37;20.40;54.10
35325;DHT22;35135;47.510;19.036;2022-12-29T12:04:05;20.40;54.00
35325;DHT22;35135;47.510;19.036;2022-12-29T12:06:35;20.40;54.00
35325;DHT22;35135;47.510;19.036;2022-12-29T12:09:08;20.40;54.10
35325;DHT22;35135;47.510;19.036;2022-12-29T12:11:39;20.40;54.10
35325;DHT22;35135;47.510;19.036;2022-12-29T12:14:14;20.40;54.20
35325;DHT22;35135;47.510;19.036;2022-12-29T12:16:45;20.50;54.20
35325;DHT22;35135;47.510;19.036;2022-12-29T12:22:01;20.50;54.10
35325;DHT22;35135;47.510;19.036;2022-12-29T12:27:26;20.50;54.10
35325;DHT22;35135;47.510;19.036;2022-12-29T12:30:17;20.50;54.20
35325;DHT22;35135;47.510;19.036;2022-12-29T12:32:48;20.50;54.20
35325;DHT22;35135;47.510;19.036;2022-12-29T12:38:26;20.50;54.20
35325;DHT22;35135;47.510;19.036;2022-12-29T12:43:45;20.50;54.30
35325;DHT22;35135;47.510;19.036;2022-12-29T12:46:19;20.50;54.20
35325;DHT22;35135;47.510;19.036;2022-12-29T12:51:56;20.50;54.30
35325;DHT22;35135;47.510;19.036;2022-12-29T12:57:37;20.50;54.20
35325;DHT22;35135;47.510;19.036;2022-12-29T13:00:17;20.50;54.10
35325;DHT22;35135;47.510;19.036;2022-12-29T13:11:17;20.50;54.00
35325;DHT22;35135;47.510;19.036;2022-12-29T13:30:28;20.40;53.30
35325;DHT22;35135;47.510;19.036;2022-12-29T13:36:29;20.50;53.30
35325;DHT22;35135;47.510;19.036;2022-12-29T13:41:54;20.40;53.10
35325;DHT22;35135;47.510;19.036;2022-12-29T13:50:22;20.40;53.10
35325;DHT22;35135;47.510;19.036;2022-12-29T13:56:07;20.40;53.20
35325;DHT22;35135;47.510;19.036;2022-12-29T13:58:36;20.40;53.20
35325;DHT22;35135;47.510;19.036;2022-12-29T14:01:13;20.40;53.20
35325;DHT22;35135;47.510;19.036;2022-12-29T14:03:53;20.40;53.20
35325;DHT22;35135;47.510;19.036;2022-12-29T14:06:30;20.40;53.20
35325;DHT22;35135;47.510;19.036;2022-12-29T14:09:04;20.40;53.10
35325;DHT22;35135;47.510;19.036;2022-12-29T14:11:39;20.40;53.20
35325;DHT22;35135;47.510;19.036;2022-12-29T14:16:49;20.40;53.00
35325;DHT22;35135;47.510;19.036;2022-12-29T14:19:28;20.40;53.10
35325;DHT22;35135;47.510;19.036;2022-12-29T14:22:02;20.50;53.10
35325;DHT22;35135;47.510;19.036;2022-12-29T14:27:03;20.40;53.10
35325;DHT22;35135;47.510;19.036;2022-12-29T14:29:47;20.40;53.00
35325;DHT22;35135;47.510;19.036;2022-12-29T14:35:36;20.40;53.00
35325;DHT22;35135;47.510;19.036;2022-12-29T14:37:46;20.40;53.00
35325;DHT22;35135;47.510;19.036;2022-12-29T14:40:19;20.40;53.00
35325;DHT22;35135;47.510;19.036;2022-12-29T14:42:49;20.40;53.00
35325;DHT22;35135;47.510;19.036;2022-12-29T14:47:50;20.40;53.00
35325;DHT22;35135;47.510;19.036;2022-12-29T14:50:25;20.40;52.90
35325;DHT22;35135;47.510;19.036;2022-12-29T15:00:52;20.40;52.90
35325;DHT22;35135;47.510;19.036;2022-12-29T15:03:31;20.40;52.90
35325;DHT22;35135;47.510;19.036;2022-12-29T15:08:37;20.40;52.90
35325;DHT22;35135;47.510;19.036;2022-12-29T15:11:14;20.50;52.90
35325;DHT22;35135;47.510;19.036;2022-12-29T15:13:41;20.40;52.80
35325;DHT22;35135;47.510;19.036;2022-12-29T15:16:26;20.40;52.90
35325;DHT22;35135;47.510;19.036;2022-12-29T15:18:54;20.40;52.80
35325;DHT22;35135;47.510;19.036;2022-12-29T15:21:41;20.40;52.90
35325;DHT22;35135;47.510;19.036;2022-12-29T15:24:10;20.40;52.80
35325;DHT22;35135;47.510;19.036;2022-12-29T15:26:39;20.40;52.90
35325;DHT22;35135;47.510;19.036;2022-12-29T15:29:05;20.50;52.90
35325;DHT22;35135;47.510;19.036;2022-12-29T15:31:31;20.40;52.90
35325;DHT22;35135;47.510;19.036;2022-12-29T15:34:10;20.40;52.90
35325;DHT22;35135;47.510;19.036;2022-12-29T15:36:38;20.40;52.90
35325;DHT22;35135;47.510;19.036;2022-12-29T15:39:21;20.40;53.00
35325;DHT22;35135;47.510;19.036;2022-12-29T15:42:27;20.40;52.90
35325;DHT22;35135;47.510;19.036;2022-12-29T15:44:56;20.40;52.90
35325;DHT22;35135;47.510;19.036;2022-12-29T15:47:27;20.40;53.00
35325;DHT22;35135;47.510;19.036;2022-12-29T15:50:04;20.40;53.00
35325;DHT22;35135;47.510;19.036;2022-12-29T15:52:32;20.40;53.00
35325;DHT22;35135;47.510;19.036;2022-12-29T15:54:59;20.40;53.00
35325;DHT22;35135;47.510;19.036;2022-12-29T15:57:30;20.40;53.00
35325;DHT22;35135;47.510;19.036;2022-12-29T15:59:57;20.40;53.00
35325;DHT22;35135;47.510;19.036;2022-12-29T16:02:25;20.40;53.00
35325;DHT22;35135;47.510;19.036;2022-12-29T16:04:52;20.40;53.00
35325;DHT22;35135;47.510;19.036;2022-12-29T16:07:35;20.40;53.00
35325;DHT22;35135;47.510;19.036;2022-12-29T16:10:02;20.40;52.90
35325;DHT22;35135;47.510;19.036;2022-12-29T16:12:33;20.40;52.90
35325;DHT22;35135;47.510;19.036;2022-12-29T16:15:07;20.40;52.90
35325;DHT22;35135;47.510;19.036;2022-12-29T16:17:47;20.40;52.90
35325;DHT22;35135;47.510;19.036;2022-12-29T16:20:23;20.40;52.90
35325;DHT22;35135;47.510;19.036;2022-12-29T16:22:54;20.50;52.90
35325;DHT22;35135;47.510;19.036;2022-12-29T16:25:34;20.60;52.90
35325;DHT22;35135;47.510;19.036;2022-12-29T16:28:16;20.70;52.70
35325;DHT22;35135;47.510;19.036;2022-12-29T16:30:42;20.70;52.60
35325;DHT22;35135;47.510;19.036;2022-12-29T16:33:29;20.90;53.20
35325;DHT22;35135;47.510;19.036;2022-12-29T16:35:58;20.90;52.30
35325;DHT22;35135;47.510;19.036;2022-12-29T16:38:31;21.00;52.20
35325;DHT22;35135;47.510;19.036;2022-12-29T16:40:59;21.10;52.20
35325;DHT22;35135;47.510;19.036;2022-12-29T16:43:35;21.20;52.20
35325;DHT22;35135;47.510;19.036;2022-12-29T16:48:55;21.30;51.70
35325;DHT22;35135;47.510;19.036;2022-12-29T16:51:32;21.40;51.60
35325;DHT22;35135;47.510;19.036;2022-12-29T16:53:59;21.40;51.50
35325;DHT22;35135;47.510;19.036;2022-12-29T16:56:29;21.40;51.30
35325;DHT22;35135;47.510;19.036;2022-12-29T17:01:27;21.40;51.20
35325;DHT22;35135;47.510;19.036;2022-12-29T17:03:57;21.40;51.20
35325;DHT22;35135;47.510;19.036;2022-12-29T17:06:23;21.40;51.20
35325;DHT22;35135;47.510;19.036;2022-12-29T17:08:50;21.40;51.10
35325;DHT22;35135;47.510;19.036;2022-12-29T17:11:33;21.30;51.10
35325;DHT22;35135;47.510;19.036;2022-12-29T17:14:38;21.30;51.10
35325;DHT22;35135;47.510;19.036;2022-12-29T17:17:32;21.30;51.10
35325;DHT22;35135;47.510;19.036;2022-12-29T17:20:09;21.30;51.70
35325;DHT22;35135;47.510;19.036;2022-12-29T17:22:39;21.30;51.10
35325;DHT22;35135;47.510;19.036;2022-12-29T17:25:05;21.30;50.80
35325;DHT22;35135;47.510;19.036;2022-12-29T17:27:35;21.20;50.80
35325;DHT22;35135;47.510;19.036;2022-12-29T17:30:10;21.20;50.80
35325;DHT22;35135;47.510;19.036;2022-12-29T17:32:36;21.20;50.80
35325;DHT22;35135;47.510;19.036;2022-12-29T17:35:02;21.10;50.90
35325;DHT22;35135;47.510;19.036;2022-12-29T17:37:36;21.10;51.10
35325;DHT22;35135;47.510;19.036;2022-12-29T17:40:03;21.10;51.20
35325;DHT22;35135;47.510;19.036;2022-12-29T17:42:31;21.10;51.00
35325;DHT22;35135;47.510;19.036;2022-12-29T17:44:58;21.00;51.20
35325;DHT22;35135;47.510;19.036;2022-12-29T17:47:25;21.00;51.20
35325;DHT22;35135;47.510;19.036;2022-12-29T17:49:51;21.00;51.10
35325;DHT22;35135;47.510;19.036;2022-12-29T17:52:16;21.00;51.30
35325;DHT22;35135;47.510;19.036;2022-12-29T17:54:49;21.00;51.20
35325;DHT22;35135;47.510;19.036;2022-12-29T17:57:17;20.90;51.30
35325;DHT22;35135;47.510;19.036;2022-12-29T17:59:43;20.90;51.00
35325;DHT22;35135;47.510;19.036;2022-12-29T18:02:29;20.90;50.90
35325;DHT22;35135;47.510;19.036;2022-12-29T18:04:57;20.90;51.00
35325;DHT22;35135;47.510;19.036;2022-12-29T18:07:25;20.90;51.10
35325;DHT22;35135;47.510;19.036;2022-12-29T18:09:52;20.90;51.10
35325;DHT22;35135;47.510;19.036;2022-12-29T18:12:39;20.90;51.10
35325;DHT22;35135;47.510;19.036;2022-12-29T18:15:06;20.90;51.00
35325;DHT22;35135;47.510;19.036;2022-12-29T18:17:32;20.90;51.00